Thorold, Canada
Current Conditions -  °F | °C
As of 2:00 PM on Thursday 23 Oct 2014 (Local Time) from CYSN Reporting Station
Few Clouds Few Clouds  
Wind Chill: 57°   Ceiling: Unl
Heat Index: 57°   Visibility: 15mi
Dew Point: 43°   Wind: 10mph
Humidity: 59%   Direction: 310°NW
Pressure: 30.09"   Gusts: NA
Location:  43.12°N, 79.2°W
Report Text: CYSN 231800Z 31009KT 15SM FEW240 14/06 A3009 RMK CI1 CI TR SLP191
Loading
Personal Weather Stations






























Interactive Weather Map
Tropical Storm Tracking
New forecast layout! Learn more

10-Day Weather Forecast

Advertisements
Track Severe Weather on mobile